createdAt,value
2018-04-18T00:01:19.032Z,99.90
2018-04-18T00:03:52.780Z,99.90
2018-04-18T00:06:26.559Z,99.90
2018-04-18T00:09:00.284Z,99.90
2018-04-18T00:11:34.067Z,99.90
2018-04-18T00:14:07.806Z,99.90
2018-04-18T00:16:41.426Z,99.90
2018-04-18T00:19:15.933Z,99.90
2018-04-18T00:21:49.618Z,99.90
2018-04-18T00:24:23.474Z,99.90
2018-04-18T00:26:57.291Z,99.90
2018-04-18T00:29:30.976Z,99.90
2018-04-18T00:32:04.766Z,99.90
2018-04-18T00:34:38.524Z,99.90
2018-04-18T00:37:12.320Z,99.90
2018-04-18T00:39:46.046Z,99.90
2018-04-18T00:42:19.857Z,99.90
2018-04-18T00:44:53.490Z,99.90
2018-04-18T00:47:27.296Z,99.90
2018-04-18T00:50:01.062Z,99.90
2018-04-18T00:52:34.779Z,99.90
2018-04-18T00:55:08.561Z,99.90
2018-04-18T00:57:42.203Z,99.90
2018-04-18T01:00:15.976Z,99.90
2018-04-18T01:02:49.949Z,99.90
2018-04-18T01:05:23.760Z,99.90
2018-04-18T01:07:58.341Z,99.90
2018-04-18T01:10:32.125Z,99.90
2018-04-18T01:13:06.772Z,99.90
2018-04-18T01:15:40.370Z,99.90
2018-04-18T01:18:14.209Z,99.90
2018-04-18T01:20:48.115Z,99.90
2018-04-18T01:23:22.705Z,99.90
2018-04-18T01:25:56.664Z,99.90
2018-04-18T01:28:30.468Z,99.90
2018-04-18T01:31:04.288Z,99.90
2018-04-18T01:33:37.996Z,99.90
2018-04-18T01:36:11.870Z,99.90
2018-04-18T01:38:45.658Z,99.90
2018-04-18T01:41:19.411Z,99.90
2018-04-18T01:43:53.248Z,99.90
2018-04-18T01:46:27.066Z,99.90
2018-04-18T01:49:12.637Z,99.90
2018-04-18T01:51:47.143Z,99.90
2018-04-18T01:54:21.670Z,99.90
2018-04-18T01:56:55.380Z,99.90
2018-04-18T01:59:29.201Z,99.90
2018-04-18T02:02:02.869Z,99.90
2018-04-18T02:04:36.580Z,99.90
2018-04-18T02:07:10.292Z,99.90
2018-04-18T02:09:44.095Z,99.90
2018-04-18T02:12:18.723Z,99.90
2018-04-18T02:14:52.488Z,99.90
2018-04-18T02:17:27.054Z,99.90
2018-04-18T02:20:01.583Z,99.90
2018-04-18T02:22:35.343Z,99.90
2018-04-18T02:25:09.105Z,99.90
2018-04-18T02:27:43.500Z,99.90
2018-04-18T02:30:17.353Z,99.90
2018-04-18T02:32:51.942Z,99.90
2018-04-18T02:35:25.733Z,99.90
2018-04-18T02:37:59.329Z,99.90
2018-04-18T02:40:33.860Z,99.90
2018-04-18T02:43:07.536Z,99.90
2018-04-18T02:45:41.291Z,99.90
2018-04-18T02:48:14.958Z,99.90
2018-04-18T02:50:48.707Z,99.90
2018-04-18T02:53:23.202Z,99.90
2018-04-18T02:55:56.944Z,99.90
2018-04-18T02:58:30.707Z,99.90
2018-04-18T03:01:04.457Z,99.90
2018-04-18T03:03:39.158Z,99.90
2018-04-18T03:06:12.989Z,99.90
2018-04-18T03:08:47.566Z,99.90
2018-04-18T03:11:21.978Z,99.90
2018-04-18T03:13:55.854Z,99.90
2018-04-18T03:16:29.578Z,99.90
2018-04-18T03:19:03.360Z,99.90
2018-04-18T03:21:36.888Z,99.90
2018-04-18T03:24:10.530Z,99.90
2018-04-18T03:26:45.140Z,99.90
2018-04-18T03:29:18.921Z,99.90
2018-04-18T03:31:52.695Z,99.90
2018-04-18T03:34:26.416Z,99.90
2018-04-18T03:37:00.197Z,99.90
2018-04-18T03:39:33.875Z,99.90
2018-04-18T03:42:07.691Z,99.90
2018-04-18T03:44:41.464Z,99.90
2018-04-18T03:47:15.310Z,99.90
2018-04-18T03:49:49.210Z,99.90
2018-04-18T03:52:23.009Z,99.90
2018-04-18T03:54:56.817Z,99.90
2018-04-18T03:57:31.307Z,99.90
2018-04-18T04:00:05.012Z,99.90
2018-04-18T04:02:38.883Z,99.90
2018-04-18T04:05:12.614Z,99.90
2018-04-18T04:07:46.340Z,99.90
2018-04-18T04:10:20.112Z,99.90
2018-04-18T04:12:53.874Z,99.90
2018-04-18T04:15:27.636Z,99.90
2018-04-18T04:18:13.497Z,99.90
2018-04-18T04:20:59.244Z,99.90
2018-04-18T04:23:45.927Z,99.90
2018-04-18T04:26:19.723Z,99.90
2018-04-18T04:28:53.569Z,99.90
2018-04-18T04:31:27.312Z,99.90
2018-04-18T04:34:01.231Z,99.90
2018-04-18T04:36:34.826Z,99.90
2018-04-18T04:39:08.751Z,99.90
2018-04-18T04:41:42.530Z,99.90
2018-04-18T04:44:16.275Z,99.90
2018-04-18T04:46:50.758Z,99.90
2018-04-18T04:49:25.309Z,99.90
2018-04-18T04:51:59.052Z,99.90
2018-04-18T04:54:33.432Z,99.90
2018-04-18T04:57:07.123Z,99.90
2018-04-18T04:59:40.980Z,99.90
2018-04-18T05:02:14.705Z,99.90
2018-04-18T05:04:48.480Z,99.90
2018-04-18T05:07:23.092Z,99.90
2018-04-18T05:09:56.935Z,99.90
2018-04-18T05:12:30.659Z,99.90
2018-04-18T05:15:04.564Z,99.90
2018-04-18T05:17:38.290Z,99.90
2018-04-18T05:20:12.028Z,99.90
2018-04-18T05:22:45.835Z,99.90
2018-04-18T05:25:19.642Z,99.90
2018-04-18T05:27:54.219Z,99.90
2018-04-18T05:30:28.011Z,99.90
2018-04-18T05:33:01.831Z,99.90
2018-04-18T05:35:35.591Z,99.90
2018-04-18T05:38:09.359Z,99.90
2018-04-18T05:40:43.131Z,99.90
2018-04-18T05:43:16.841Z,99.90
2018-04-18T05:45:50.640Z,99.90
2018-04-18T05:48:24.372Z,99.90
2018-04-18T05:50:58.262Z,99.90
2018-04-18T05:53:32.816Z,99.90
2018-04-18T05:56:07.319Z,99.90
2018-04-18T05:58:41.111Z,99.90
2018-04-18T06:01:15.672Z,99.90
2018-04-18T06:03:49.410Z,99.90
2018-04-18T06:06:23.227Z,99.90
2018-04-18T06:08:57.674Z,99.90
2018-04-18T06:11:31.418Z,99.90
2018-04-18T06:14:05.217Z,99.90
2018-04-18T06:16:39.003Z,99.90
2018-04-18T06:19:12.813Z,99.90
2018-04-18T06:21:47.254Z,99.90
2018-04-18T06:24:20.950Z,99.90
2018-04-18T06:26:55.552Z,99.90
2018-04-18T06:29:29.275Z,99.90
2018-04-18T06:32:03.060Z,99.90
2018-04-18T06:34:37.563Z,99.90
2018-04-18T06:37:11.300Z,99.90
2018-04-18T06:39:44.995Z,99.90
2018-04-18T06:42:18.771Z,99.90
2018-04-18T06:44:52.581Z,99.90
2018-04-18T06:47:26.329Z,99.90
2018-04-18T06:50:00.128Z,99.90
2018-04-18T06:52:33.966Z,99.90
2018-04-18T06:55:08.524Z,99.90
2018-04-18T06:57:42.344Z,99.90
2018-04-18T07:00:16.064Z,99.90
2018-04-18T07:02:49.892Z,99.90
2018-04-18T07:05:24.480Z,99.90
2018-04-18T07:07:58.249Z,99.90
2018-04-18T07:10:32.118Z,99.90
2018-04-18T07:13:05.862Z,99.90
2018-04-18T07:15:39.608Z,99.90
2018-04-18T07:18:13.436Z,99.90
2018-04-18T07:20:47.207Z,99.90
2018-04-18T07:23:20.944Z,99.90
2018-04-18T07:25:54.735Z,99.90
2018-04-18T07:28:28.514Z,99.90
2018-04-18T07:31:02.335Z,99.90
2018-04-18T07:33:36.065Z,99.90
2018-04-18T07:36:09.713Z,99.90
2018-04-18T07:38:43.544Z,99.90
2018-04-18T07:41:17.268Z,99.90
2018-04-18T07:43:51.103Z,99.90
2018-04-18T07:46:24.859Z,99.90
2018-04-18T07:48:58.634Z,99.90
2018-04-18T07:51:32.487Z,99.90
2018-04-18T07:54:06.344Z,99.90
2018-04-18T07:56:40.894Z,97.20
2018-04-18T07:59:14.677Z,97.20
2018-04-18T08:01:48.421Z,97.50
2018-04-18T08:04:23.056Z,95.80
2018-04-18T08:06:56.775Z,95.80
2018-04-18T08:09:30.430Z,95.40
2018-04-18T08:12:04.178Z,95.00
2018-04-18T08:14:38.837Z,94.80
2018-04-18T08:17:12.636Z,94.70
2018-04-18T08:19:46.407Z,95.10
2018-04-18T08:22:20.312Z,95.50
2018-04-18T08:24:54.067Z,94.30
2018-04-18T08:27:27.783Z,94.40
2018-04-18T08:30:02.426Z,92.30
2018-04-18T08:32:36.206Z,92.30
2018-04-18T08:35:09.845Z,90.30
2018-04-18T08:37:43.700Z,88.10
2018-04-18T08:40:17.421Z,87.70
2018-04-18T08:42:51.293Z,86.30
2018-04-18T08:45:25.038Z,81.50
2018-04-18T08:47:58.885Z,76.90
2018-04-18T08:50:33.493Z,76.30
2018-04-18T08:53:07.309Z,76.30
2018-04-18T08:55:41.090Z,72.10
2018-04-18T08:58:14.879Z,70.20
2018-04-18T09:00:49.478Z,61.80
2018-04-18T09:03:24.043Z,61.10
2018-04-18T09:05:57.848Z,61.10
2018-04-18T09:08:32.369Z,57.50
2018-04-18T09:11:06.988Z,55.50
2018-04-18T09:13:40.759Z,55.50
2018-04-18T09:16:15.397Z,56.20
2018-04-18T09:18:49.187Z,56.20
2018-04-18T09:21:23.009Z,56.00
2018-04-18T09:23:56.886Z,56.00
2018-04-18T09:26:30.661Z,55.80
2018-04-18T09:29:04.486Z,56.40
2018-04-18T09:31:38.274Z,54.00
2018-04-18T09:34:12.028Z,51.40
2018-04-18T09:36:45.839Z,51.50
2018-04-18T09:39:19.603Z,51.60
2018-04-18T09:41:54.198Z,51.40
2018-04-18T09:44:28.650Z,51.40
2018-04-18T09:47:02.506Z,50.10
2018-04-18T09:49:36.381Z,50.40
2018-04-18T09:52:10.045Z,48.90
2018-04-18T09:54:43.821Z,49.90
2018-04-18T09:57:17.531Z,49.90
2018-04-18T09:59:51.324Z,49.30
2018-04-18T10:02:29.137Z,50.00
2018-04-18T10:05:07.441Z,49.80
2018-04-18T10:07:41.178Z,50.30
2018-04-18T10:10:15.824Z,48.60
2018-04-18T10:12:49.546Z,48.50
2018-04-18T10:15:24.112Z,48.40
2018-04-18T10:17:57.737Z,48.30
2018-04-18T10:20:31.531Z,49.10
2018-04-18T10:23:05.245Z,48.80
2018-04-18T10:25:38.985Z,48.50
2018-04-18T10:28:13.543Z,47.90
2018-04-18T10:30:48.056Z,48.50
2018-04-18T10:33:21.765Z,48.50
2018-04-18T10:35:55.415Z,46.50
2018-04-18T10:38:29.190Z,47.00
2018-04-18T10:41:02.924Z,45.20
2018-04-18T10:43:37.495Z,46.90
2018-04-18T10:46:11.152Z,46.90
2018-04-18T10:48:45.741Z,48.30
2018-04-18T10:51:19.536Z,48.30
2018-04-18T10:53:53.262Z,47.30
2018-04-18T10:56:27.833Z,48.00
2018-04-18T10:59:02.285Z,48.50
2018-04-18T11:01:36.058Z,48.00
2018-04-18T11:04:13.475Z,46.60
2018-04-18T11:06:47.994Z,47.40
2018-04-18T11:09:21.812Z,47.30
2018-04-18T11:11:56.344Z,49.10
2018-04-18T11:14:30.153Z,49.00
2018-04-18T11:17:03.959Z,48.30
2018-04-18T11:19:38.553Z,46.30
2018-04-18T11:22:13.065Z,46.00
2018-04-18T11:24:46.679Z,45.40
2018-04-18T11:27:20.486Z,46.00
2018-04-18T11:29:54.218Z,47.30
2018-04-18T11:32:28.009Z,48.10
2018-04-18T11:35:02.427Z,47.40
2018-04-18T11:37:36.196Z,47.40
2018-04-18T11:40:09.835Z,47.30
2018-04-18T11:42:43.688Z,46.20
2018-04-18T11:45:17.573Z,46.60
2018-04-18T11:47:54.835Z,47.70
2018-04-18T11:50:28.726Z,46.80
2018-04-18T11:53:02.409Z,46.30
2018-04-18T11:55:36.179Z,46.60
2018-04-18T11:58:10.003Z,46.30
2018-04-18T12:00:43.788Z,47.20
2018-04-18T12:03:18.468Z,47.30
2018-04-18T12:05:52.291Z,47.20
2018-04-18T12:08:26.839Z,47.10
2018-04-18T12:11:00.614Z,47.10
2018-04-18T12:13:34.418Z,47.50
2018-04-18T12:16:08.042Z,47.00
2018-04-18T12:18:41.852Z,47.60
2018-04-18T12:21:16.444Z,47.60
2018-04-18T12:23:50.968Z,47.70
2018-04-18T12:26:24.634Z,47.70
2018-04-18T12:28:58.361Z,48.20
2018-04-18T12:31:32.248Z,48.30
2018-04-18T12:34:05.989Z,48.40
2018-04-18T12:36:39.685Z,48.70
2018-04-18T12:39:13.337Z,47.70
2018-04-18T12:41:47.805Z,47.50
2018-04-18T12:44:21.490Z,47.50
2018-04-18T12:46:55.309Z,46.90
2018-04-18T12:49:29.179Z,46.70
2018-04-18T12:52:03.641Z,46.00
2018-04-18T12:54:37.379Z,46.00
2018-04-18T12:57:11.194Z,46.60
2018-04-18T12:59:45.762Z,46.30
2018-04-18T13:02:19.537Z,46.20
2018-04-18T13:04:53.183Z,45.20
2018-04-18T13:07:26.795Z,46.00
2018-04-18T13:10:00.617Z,42.40
2018-04-18T13:12:34.303Z,41.70
2018-04-18T13:15:08.115Z,42.50
2018-04-18T13:17:42.704Z,43.40
2018-04-18T13:20:16.492Z,43.30
2018-04-18T13:22:51.073Z,44.00
2018-04-18T13:25:25.619Z,44.20
2018-04-18T13:27:59.604Z,44.10
2018-04-18T13:30:33.469Z,44.00
2018-04-18T13:33:07.239Z,43.80
2018-04-18T13:35:41.804Z,43.40
2018-04-18T13:38:15.579Z,43.90
2018-04-18T13:40:49.374Z,42.80
2018-04-18T13:43:23.103Z,43.30
2018-04-18T13:45:56.915Z,41.80
2018-04-18T13:48:30.757Z,41.20
2018-04-18T13:51:04.570Z,41.70
2018-04-18T13:53:38.405Z,40.90
2018-04-18T13:56:13.070Z,41.50
2018-04-18T13:58:46.892Z,41.20
2018-04-18T14:01:21.410Z,41.00
2018-04-18T14:03:55.177Z,41.00
2018-04-18T14:06:28.856Z,41.60
2018-04-18T14:09:03.446Z,41.20
2018-04-18T14:11:37.127Z,41.20
2018-04-18T14:14:11.484Z,41.40
2018-04-18T14:16:45.258Z,41.90
2018-04-18T14:19:19.052Z,41.80
2018-04-18T14:21:52.720Z,41.80
2018-04-18T14:24:27.194Z,41.60
2018-04-18T14:27:00.906Z,41.50
2018-04-18T14:29:35.443Z,41.70
2018-04-18T14:32:09.191Z,41.70
2018-04-18T14:34:42.853Z,41.60
2018-04-18T14:37:16.509Z,42.10
2018-04-18T14:39:50.291Z,41.70
2018-04-18T14:42:24.061Z,41.80
2018-04-18T14:44:57.692Z,41.80
2018-04-18T14:47:32.171Z,42.00
2018-04-18T14:50:05.892Z,41.90
2018-04-18T14:52:39.687Z,42.10
2018-04-18T14:55:14.324Z,42.10
2018-04-18T14:57:48.835Z,43.20
2018-04-18T15:00:22.540Z,42.70
2018-04-18T15:02:57.037Z,43.00
2018-04-18T15:05:30.735Z,42.90
2018-04-18T15:08:04.503Z,43.00
2018-04-18T15:10:38.861Z,43.10
2018-04-18T15:13:12.849Z,43.10
2018-04-18T15:15:46.498Z,43.10
2018-04-18T15:18:20.279Z,43.00
2018-04-18T15:20:54.812Z,42.80
2018-04-18T15:23:29.365Z,42.50
2018-04-18T15:26:03.954Z,42.30
2018-04-18T15:28:37.670Z,42.20
2018-04-18T15:31:11.345Z,42.50
2018-04-18T15:33:45.278Z,42.40
2018-04-18T15:36:19.601Z,42.50
2018-04-18T15:38:53.439Z,42.40
2018-04-18T15:41:27.188Z,42.10
2018-04-18T15:44:01.006Z,41.30
2018-04-18T15:46:34.733Z,41.50
2018-04-18T15:49:08.533Z,42.40
2018-04-18T15:51:42.309Z,41.90
2018-04-18T15:54:16.839Z,41.60
2018-04-18T15:56:51.374Z,41.30
2018-04-18T15:59:25.141Z,41.30
2018-04-18T16:01:58.749Z,41.40
2018-04-18T16:04:33.140Z,40.60
2018-04-18T16:07:06.944Z,40.60
2018-04-18T16:09:40.798Z,40.70
2018-04-18T16:12:14.519Z,39.50
2018-04-18T16:14:49.130Z,39.20
2018-04-18T16:17:23.630Z,39.80
2018-04-18T16:19:57.400Z,39.20
2018-04-18T16:22:31.897Z,39.00
2018-04-18T16:25:05.611Z,39.00
2018-04-18T16:27:39.279Z,39.30
2018-04-18T16:30:24.960Z,39.50
2018-04-18T16:33:01.518Z,39.50
2018-04-18T16:35:36.981Z,39.50
2018-04-18T16:38:10.635Z,40.10
2018-04-18T16:40:45.324Z,39.50
2018-04-18T16:43:18.928Z,39.70
2018-04-18T16:45:52.695Z,40.00
2018-04-18T16:48:26.268Z,40.10
2018-04-18T16:51:00.750Z,40.30
2018-04-18T16:53:34.427Z,40.30
2018-04-18T16:56:08.146Z,40.30
2018-04-18T16:58:41.844Z,40.50
2018-04-18T17:01:15.636Z,40.80
2018-04-18T17:03:49.359Z,40.70
2018-04-18T17:06:23.027Z,40.70
2018-04-18T17:08:56.644Z,41.00
2018-04-18T17:11:31.163Z,40.50
2018-04-18T17:14:04.763Z,40.40
2018-04-18T17:16:38.609Z,40.50
2018-04-18T17:19:12.439Z,39.80
2018-04-18T17:21:46.246Z,39.50
2018-04-18T17:24:20.811Z,39.30
2018-04-18T17:26:54.530Z,39.30
2018-04-18T17:29:28.147Z,39.50
2018-04-18T17:32:01.892Z,39.30
2018-04-18T17:34:35.741Z,40.00
2018-04-18T17:37:10.251Z,40.90
2018-04-18T17:39:44.081Z,40.80
2018-04-18T17:42:18.646Z,41.10
2018-04-18T17:44:53.103Z,41.80
2018-04-18T17:47:26.745Z,41.80
2018-04-18T17:50:00.323Z,42.80
2018-04-18T17:52:34.049Z,43.90
2018-04-18T17:55:07.700Z,44.80
2018-04-18T17:57:41.428Z,46.10
2018-04-18T18:00:15.206Z,47.00
2018-04-18T18:02:48.892Z,47.30
2018-04-18T18:05:22.546Z,47.40
2018-04-18T18:07:56.856Z,47.50
2018-04-18T18:10:30.548Z,48.10
2018-04-18T18:13:05.078Z,48.70
2018-04-18T18:15:38.880Z,48.70
2018-04-18T18:18:13.402Z,49.20
2018-04-18T18:20:47.148Z,49.10
2018-04-18T18:23:20.931Z,49.50
2018-04-18T18:25:54.600Z,49.30
2018-04-18T18:28:28.428Z,49.70
2018-04-18T18:31:02.145Z,49.60
2018-04-18T18:33:35.844Z,50.30
2018-04-18T18:36:10.252Z,50.30
2018-04-18T18:38:44.761Z,50.60
2018-04-18T18:41:19.186Z,50.70
2018-04-18T18:43:53.033Z,50.60
2018-04-18T18:46:26.718Z,51.30
2018-04-18T18:49:00.478Z,50.90
2018-04-18T18:51:34.303Z,51.00
2018-04-18T18:54:08.039Z,50.80
2018-04-18T18:56:41.800Z,51.30
2018-04-18T18:59:16.388Z,51.40
2018-04-18T19:01:49.935Z,51.40
2018-04-18T19:04:23.563Z,51.60
2018-04-18T19:06:57.324Z,51.40
2018-04-18T19:09:31.074Z,51.30
2018-04-18T19:12:04.831Z,51.40
2018-04-18T19:14:38.477Z,51.70
2018-04-18T19:17:12.020Z,52.00
2018-04-18T19:19:45.607Z,52.50
2018-04-18T19:22:19.270Z,52.50
2018-04-18T19:24:52.913Z,52.80
2018-04-18T19:27:26.497Z,53.20
2018-04-18T19:30:00.773Z,53.20
2018-04-18T19:32:34.399Z,53.20
2018-04-18T19:35:08.055Z,53.80
2018-04-18T19:37:41.612Z,54.00
2018-04-18T19:40:15.206Z,53.50
2018-04-18T19:42:48.836Z,54.00
2018-04-18T19:45:23.301Z,53.70
2018-04-18T19:47:56.827Z,53.60
2018-04-18T19:50:31.158Z,54.10
2018-04-18T19:53:04.899Z,54.10
2018-04-18T19:55:38.582Z,54.00
2018-04-18T19:58:12.094Z,53.70
2018-04-18T20:00:45.680Z,53.70
2018-04-18T20:03:19.253Z,54.20
2018-04-18T20:05:52.970Z,54.30
2018-04-18T20:08:26.584Z,54.00
2018-04-18T20:11:00.199Z,54.50
2018-04-18T20:13:33.702Z,54.40
2018-04-18T20:16:07.264Z,54.30
2018-04-18T20:18:40.852Z,54.60
2018-04-18T20:21:14.388Z,55.00
2018-04-18T20:23:47.961Z,55.70
2018-04-18T20:26:21.534Z,56.20
2018-04-18T20:28:55.172Z,56.70
2018-04-18T20:31:28.768Z,57.10
2018-04-18T20:34:02.362Z,57.30
2018-04-18T20:36:37.698Z,58.00
2018-04-18T20:39:11.412Z,58.80
2018-04-18T20:41:53.793Z,59.00
2018-04-18T20:44:27.518Z,59.60
2018-04-18T20:47:01.096Z,60.00
2018-04-18T20:49:35.462Z,61.60
2018-04-18T20:52:09.189Z,61.60
2018-04-18T20:54:43.660Z,63.20
2018-04-18T20:57:17.359Z,63.10
2018-04-18T20:59:50.940Z,63.30
2018-04-18T21:02:25.492Z,64.50
2018-04-18T21:04:59.176Z,64.50
2018-04-18T21:07:32.826Z,65.10
2018-04-18T21:10:06.394Z,65.70
2018-04-18T21:12:39.939Z,66.60
2018-04-18T21:15:13.507Z,67.00
2018-04-18T21:17:47.056Z,67.10
2018-04-18T21:20:20.693Z,67.70
2018-04-18T21:22:54.306Z,68.00
2018-04-18T21:25:27.864Z,68.60
2018-04-18T21:28:01.495Z,71.10
2018-04-18T21:30:35.102Z,71.10
2018-04-18T21:33:08.710Z,71.60
2018-04-18T21:35:42.180Z,72.00
2018-04-18T21:38:15.704Z,72.30
2018-04-18T21:40:49.403Z,72.50
2018-04-18T21:43:23.023Z,72.20
2018-04-18T21:45:56.613Z,73.90
2018-04-18T21:48:30.327Z,74.40
2018-04-18T21:51:04.054Z,74.60
2018-04-18T21:53:38.429Z,76.10
2018-04-18T21:56:12.938Z,76.10
2018-04-18T21:58:46.673Z,76.00
2018-04-18T22:01:21.073Z,77.60
2018-04-18T22:03:54.745Z,77.60
2018-04-18T22:06:29.090Z,78.50
2018-04-18T22:09:02.608Z,78.50
2018-04-18T22:11:36.190Z,79.00
2018-04-18T22:14:10.513Z,79.90
2018-04-18T22:16:44.240Z,79.90
2018-04-18T22:19:18.528Z,84.00
2018-04-18T22:21:52.214Z,83.80
2018-04-18T22:24:25.762Z,85.60
2018-04-18T22:26:59.455Z,84.80
2018-04-18T22:29:32.998Z,84.50
2018-04-18T22:32:06.573Z,86.20
2018-04-18T22:34:40.152Z,87.20
2018-04-18T22:37:13.711Z,86.50
2018-04-18T22:39:47.264Z,86.70
2018-04-18T22:42:20.860Z,86.90
2018-04-18T22:44:54.415Z,86.90
2018-04-18T22:47:27.974Z,87.70
2018-04-18T22:50:01.514Z,88.20
2018-04-18T22:52:35.137Z,88.00
2018-04-18T22:55:08.664Z,87.40
2018-04-18T22:57:42.235Z,87.50
2018-04-18T23:00:28.479Z,86.60
2018-04-18T23:03:02.032Z,87.50
2018-04-18T23:05:35.604Z,88.20
2018-04-18T23:08:09.230Z,89.00
2018-04-18T23:10:42.958Z,89.40
2018-04-18T23:13:17.268Z,90.20
2018-04-18T23:15:50.956Z,90.10
2018-04-18T23:18:24.519Z,90.20
2018-04-18T23:20:58.060Z,90.90
2018-04-18T23:23:31.652Z,91.30
2018-04-18T23:26:05.392Z,91.90
2018-04-18T23:28:38.941Z,91.70
2018-04-18T23:31:13.363Z,92.40
2018-04-18T23:33:46.965Z,92.40
2018-04-18T23:36:21.316Z,93.40
2018-04-18T23:38:55.709Z,93.30
2018-04-18T23:41:29.404Z,93.30
2018-04-18T23:44:03.723Z,93.70
2018-04-18T23:46:42.375Z,93.70
2018-04-18T23:49:16.069Z,94.30
2018-04-18T23:51:49.664Z,94.90
2018-04-18T23:54:23.252Z,95.50
2018-04-18T23:56:57.180Z,96.00
2018-04-18T23:59:31.672Z,96.00
